KAHQ

Wahoo Municipal Airport

Wahoo, Nebraska, USA
METAR KAHQ 231115Z AUTO 35006KT 10SM SCT110 02/00 A3034 RMK AO2 T00161005
Observed Flight Rules
Oct-23 @ 11:15 UTC (35 minutes ago) Visual Flight Rules
Wind Visibility Clouds
350° at 6 knots 10 miles
  • Scattered at 11,000' AGL
Temperatures Readings
Current 2°C / 36°F
Dewpoint -1°C / 30°F
Humidity 81%
Altimeter 30.34" Hg
Pressure 1027 hPa
Elevation 374
METAR KAHQ 231115Z AUTO 35006KT 10SM SCT110 02/00 A3034 RMK AO2 T00161005
Observed Flight Rules
Oct-23 @ 11:15 UTC
(35 minutes ago)
VFR
Wind Visibility
350° at 6 knots 10 miles
Clouds
  • Scattered at 11,000' AGL
Temperature Dewpoint
2°C / 36°F -1°C / 30°F
Humidity Altimeter Pressure
81% 30.34" Hg 1027 hPa